Time;durP1;ratioP1;P1;durP2;ratioP2;P2;SDS_P1;SDS_P2;PMS_P1;PMS_P2;Temp;Humidity;BMP_temperature;BMP_pressure;BME280_temperature;BME280_humidity;BME280_pressure;Samples;Min_cycle;Max_cycle;Signal;HPM_P1;HPM_P2
2022/02/08 00:02:16;;;;;;;3.90;1.65;;;6.20;33.00;;;;;;5050425;28;20045;-84
2022/02/08 00:04:42;;;;;;;3.05;1.10;;;6.10;34.60;;;;;;5035207;28;20029;-82
2022/02/08 00:07:10;;;;;;;2.50;0.80;;;6.00;33.70;;;;;;5051660;28;20448;-83
2022/02/08 00:09:37;;;;;;;2.80;0.70;;;5.90;34.70;;;;;;5052693;28;20439;-79
2022/02/08 00:12:14;;;;;;;4.68;1.48;;;5.80;34.80;;;;;;5051500;28;20462;-83
2022/02/08 00:14:48;;;;;;;7.13;1.88;;;5.70;34.50;;;;;;5035413;28;20033;-80
2022/02/08 00:17:28;;;;;;;2.50;1.10;;;5.60;35.10;;;;;;5034616;28;20041;-83
2022/02/08 00:19:54;;;;;;;3.03;0.88;;;5.50;35.30;;;;;;5051381;28;20033;-83
2022/02/08 00:22:24;;;;;;;2.65;0.98;;;5.40;35.60;;;;;;5034481;28;20090;-79
2022/02/08 00:24:50;;;;;;;1.95;0.82;;;5.30;35.30;;;;;;5035278;28;20049;-79
2022/02/08 00:27:19;;;;;;;3.83;1.20;;;5.30;36.10;;;;;;5034511;28;20429;-84
2022/02/08 00:29:53;;;;;;;4.65;1.30;;;5.20;36.10;;;;;;5052757;28;20037;-84
2022/02/08 00:32:19;;;;;;;3.03;0.90;;;5.10;36.50;;;;;;5051303;28;20040;-83
2022/02/08 00:34:49;;;;;;;3.22;1.15;;;5.10;36.60;;;;;;5053100;28;20399;-84
2022/02/08 00:37:26;;;;;;;17.75;6.28;;;5.00;37.00;;;;;;5038328;28;20123;-83
2022/02/08 00:39:53;;;;;;;18.85;6.90;;;4.90;36.90;;;;;;5055058;28;20037;-81
2022/02/08 00:42:22;;;;;;;20.50;8.02;;;4.90;36.90;;;;;;5054243;28;20040;-84
2022/02/08 00:45:12;;;;;;;20.10;7.50;;;4.90;36.90;;;;;;5035611;28;20121;-80
2022/02/08 00:47:54;;;;;;;17.23;6.60;;;4.80;36.90;;;;;;5036029;28;20124;-79
2022/02/08 00:50:20;;;;;;;15.40;6.50;;;4.80;37.00;;;;;;5039237;28;20112;-84
2022/02/08 00:52:52;;;;;;;18.55;7.90;;;4.70;37.10;;;;;;5038152;28;20120;-80
2022/02/08 00:55:24;;;;;;;9.55;3.75;;;4.70;37.30;;;;;;5055404;28;20084;-79
2022/02/08 00:57:52;;;;;;;8.38;4.05;;;4.60;37.40;;;;;;5054681;28;20044;-83
2022/02/08 01:00:35;;;;;;;6.90;2.63;;;4.50;37.60;;;;;;5054670;28;20037;-84
2022/02/08 01:03:06;;;;;;;8.40;2.90;;;4.50;37.80;;;;;;5039434;28;20455;-83
2022/02/08 01:05:39;;;;;;;7.75;2.97;;;4.40;37.70;;;;;;5038255;28;20065;-82
2022/02/08 01:08:09;;;;;;;14.40;3.47;;;4.40;37.50;;;;;;5054358;28;20025;-83
2022/02/08 01:10:40;;;;;;;11.55;3.33;;;4.30;38.20;;;;;;5037667;28;20052;-79
2022/02/08 01:13:11;;;;;;;10.60;3.92;;;4.30;38.20;;;;;;5054320;28;20060;-82
2022/02/08 01:15:41;;;;;;;11.60;3.97;;;4.20;38.40;;;;;;5055243;28;20056;-83
2022/02/08 01:18:12;;;;;;;9.90;3.63;;;4.20;38.60;;;;;;5037077;28;20036;-83
2022/02/08 01:20:42;;;;;;;10.93;4.05;;;4.20;38.60;;;;;;5038476;28;20044;-84
2022/02/08 01:23:13;;;;;;;9.90;3.58;;;4.10;38.70;;;;;;5054436;28;20096;-80
2022/02/08 01:31:14;;;;;;;7.90;3.15;;;3.90;38.40;;;;;;5054121;28;20063;-79
2022/02/08 01:34:06;;;;;;;11.25;4.53;;;4.00;39.00;;;;;;5037081;28;20029;-80
2022/02/08 01:36:53;;;;;;;16.30;5.90;;;3.90;39.30;;;;;;5053894;28;20124;-81
2022/02/08 01:42:36;;;;;;;18.45;8.30;;;3.80;39.50;;;;;;5054878;28;20045;-83
2022/02/08 01:47:48;;;;;;;13.98;6.20;;;3.70;39.90;;;;;;5053699;28;20136;-79
2022/02/08 01:50:16;;;;;;;13.30;5.88;;;3.70;40.10;;;;;;5054092;28;20029;-83
2022/02/08 01:52:44;;;;;;;10.35;3.28;;;3.60;39.50;;;;;;5054737;28;21343;-78
2022/02/08 01:55:16;;;;;;;9.10;3.00;;;3.60;40.30;;;;;;5036436;28;20153;-82
2022/02/08 01:57:51;;;;;;;11.77;3.95;;;3.60;40.80;;;;;;5053672;28;20045;-82
2022/02/08 02:00:20;;;;;;;6.45;3.03;;;3.50;40.70;;;;;;5053642;28;20040;-79
2022/02/08 02:02:47;;;;;;;8.25;2.90;;;3.50;40.90;;;;;;5053376;28;20044;-83
2022/02/08 02:05:21;;;;;;;10.80;4.53;;;3.40;41.00;;;;;;5035869;28;20124;-81
2022/02/08 02:07:49;;;;;;;11.98;4.97;;;3.30;41.90;;;;;;5037257;28;20120;-83
2022/02/08 02:10:19;;;;;;;13.82;4.68;;;3.30;43.30;;;;;;5053215;28;20547;-79
2022/02/08 02:13:11;;;;;;;9.25;3.00;;;3.20;43.50;;;;;;5036297;28;20021;-83
2022/02/08 02:15:37;;;;;;;5.72;2.08;;;3.20;43.50;;;;;;5052860;28;20115;-78
2022/02/08 02:18:03;;;;;;;;;;;3.20;43.30;;;;;;5054017;28;20374;-79
2022/02/08 02:20:31;;;;;;;6.30;2.65;;;3.20;42.60;;;;;;5032066;28;19916;-83
2022/02/08 02:23:02;;;;;;;6.85;2.15;;;3.00;42.30;;;;;;5050321;28;20498;-83
2022/02/08 02:25:34;;;;;;;8.32;2.42;;;3.00;43.40;;;;;;5033139;28;20357;-83
2022/02/08 02:28:08;;;;;;;6.93;2.60;;;2.90;43.70;;;;;;5033117;28;20038;-78
2022/02/08 02:30:35;;;;;;;9.27;2.38;;;2.80;43.70;;;;;;5033427;28;20060;-83
2022/02/08 02:33:01;;;;;;;;;;;2.80;43.80;;;;;;5016843;28;20304;-83
2022/02/08 02:35:31;;;;;;;7.05;2.38;;;2.70;43.10;;;;;;5035330;28;19974;-82
2022/02/08 02:37:59;;;;;;;8.02;3.05;;;2.70;43.40;;;;;;5031466;28;20099;-79
2022/02/08 02:40:28;;;;;;;10.82;2.47;;;2.60;43.00;;;;;;5014558;28;20045;-79
2022/02/08 02:42:58;;;;;;;7.35;2.65;;;2.60;43.60;;;;;;5031980;28;20494;-84
2022/02/08 02:45:26;;;;;;;7.88;2.60;;;2.60;44.00;;;;;;5014915;28;20120;-84
2022/02/08 02:47:56;;;;;;;12.73;3.20;;;2.50;43.60;;;;;;5015008;28;20450;-83
2022/02/08 02:50:24;;;;;;;7.05;2.90;;;2.50;44.10;;;;;;4997409;28;20038;-79
2022/02/08 02:53:13;;;;;;;11.73;4.53;;;2.50;44.20;;;;;;5014925;28;20045;-80
2022/02/08 02:55:41;;;;;;;13.85;5.65;;;2.40;44.70;;;;;;5009735;28;20041;-81
2022/02/08 02:58:11;;;;;;;13.05;4.63;;;2.40;45.40;;;;;;5014595;28;20049;-83
2022/02/08 03:00:48;;;;;;;11.75;4.50;;;2.30;44.80;;;;;;5014189;28;20137;-84
2022/02/08 03:19:41;;;;;;;12.23;4.40;;;2.00;44.50;;;;;;5051389;28;19923;-79
2022/02/08 03:22:16;;;;;;;11.75;3.85;;;2.00;45.00;;;;;;5051760;28;20037;-83
2022/02/08 03:24:44;;;;;;;10.07;3.47;;;1.90;45.40;;;;;;5053424;28;20047;-79
2022/02/08 03:27:15;;;;;;;8.93;3.80;;;1.80;45.30;;;;;;5035103;28;20033;-79
2022/02/08 03:29:43;;;;;;;12.07;3.42;;;1.80;45.40;;;;;;5052213;28;20075;-84
2022/02/08 03:32:13;;;;;;;8.75;3.33;;;1.70;45.50;;;;;;5035072;28;20079;-83
2022/02/08 03:34:39;;;;;;;7.85;2.45;;;1.70;45.80;;;;;;5034584;28;20128;-79
2022/02/08 03:37:06;;;;;;;8.43;2.47;;;1.70;45.80;;;;;;5052666;28;20033;-78
2022/02/08 03:39:59;;;;;;;7.63;2.50;;;1.70;45.80;;;;;;5034931;28;20068;-79
2022/02/08 03:42:34;;;;;;;8.00;3.20;;;1.70;46.20;;;;;;5020811;28;20147;-79
2022/02/08 03:45:04;;;;;;;9.48;3.35;;;1.60;46.10;;;;;;5037020;28;20083;-79
2022/02/08 03:47:35;;;;;;;8.73;3.15;;;1.60;46.10;;;;;;5035188;28;20170;-83
2022/02/08 03:50:04;;;;;;;19.08;5.80;;;1.60;46.20;;;;;;5035086;28;20392;-78
2022/02/08 03:52:32;;;;;;;13.30;5.43;;;1.60;46.30;;;;;;5051659;28;20532;-79
2022/02/08 03:55:09;;;;;;;11.43;3.97;;;1.60;46.30;;;;;;5051217;28;20047;-78
2022/02/08 03:57:37;;;;;;;9.52;3.45;;;1.60;46.10;;;;;;5051753;28;20041;-83
2022/02/08 04:00:05;;;;;;;11.32;4.57;;;1.60;46.40;;;;;;5035070;28;20123;-79
2022/02/08 04:02:45;;;;;;;10.07;4.03;;;1.60;46.50;;;;;;5034777;28;20040;-83
2022/02/08 04:05:20;;;;;;;9.20;3.67;;;1.60;46.50;;;;;;5051947;28;20428;-78
2022/02/08 04:08:00;;;;;;;9.30;3.67;;;1.40;47.60;;;;;;5051462;28;20078;-83
2022/02/08 04:10:29;;;;;;;10.15;3.88;;;1.30;47.70;;;;;;5039693;28;20390;-83
2022/02/08 04:50:25;;;;;;;13.40;5.00;;;0.90;47.70;;;;;;5055313;28;20040;-83
2022/02/08 04:52:58;;;;;;;16.15;6.15;;;0.90;47.60;;;;;;5053761;28;20099;-83
2022/02/08 05:29:54;;;;;;;12.05;4.65;;;0.50;49.40;;;;;;5019106;28;20095;-82
2022/02/08 05:45:36;;;;;;;17.27;7.32;;;0.40;49.80;;;;;;5055085;28;20029;-78
2022/02/08 05:48:08;;;;;;;28.67;14.10;;;0.30;50.00;;;;;;5053934;28;20041;-82
2022/02/08 05:50:54;;;;;;;29.75;13.32;;;0.30;49.20;;;;;;5052617;28;20037;-78
2022/02/08 05:53:31;;;;;;;84.90;34.00;;;0.20;49.90;;;;;;5053290;28;20032;-83
2022/02/08 05:56:06;;;;;;;29.13;11.40;;;0.10;50.20;;;;;;5038138;28;20066;-83
2022/02/08 05:58:40;;;;;;;17.02;6.95;;;0.00;50.30;;;;;;5053627;28;20059;-79
2022/02/08 06:01:08;;;;;;;19.38;6.22;;;0.00;50.50;;;;;;5053012;28;20136;-78
2022/02/08 06:03:34;;;;;;;14.43;5.60;;;0.10;50.20;;;;;;5053551;28;20060;-78
2022/02/08 06:06:01;;;;;;;21.50;8.85;;;0.10;50.20;;;;;;5051964;28;20079;-77
2022/02/08 06:08:32;;;;;;;16.45;6.10;;;0.10;50.10;;;;;;5020248;28;20115;-81
2022/02/08 06:11:05;;;;;;;14.93;5.45;;;0.10;50.20;;;;;;5036599;28;20037;-78
2022/02/08 06:13:31;;;;;;;25.85;10.68;;;0.10;50.20;;;;;;5054430;28;20068;-82
2022/02/08 06:16:03;;;;;;;;;;;0.10;50.20;;;;;;5036618;28;20532;-78
2022/02/08 06:18:30;;;;;;;18.92;8.32;;;0.10;49.60;;;;;;5050336;28;19947;-78
2022/02/08 06:20:57;;;;;;;21.60;7.78;;;0.00;49.90;;;;;;5051829;28;20516;-82
2022/02/08 06:23:25;;;;;;;24.05;11.48;;;0.00;50.40;;;;;;5052973;28;20029;-81
2022/02/08 06:25:58;;;;;;;55.40;21.13;;;-0.10;50.50;;;;;;5052601;28;20037;-77
2022/02/08 06:28:30;;;;;;;45.45;21.73;;;-0.10;50.70;;;;;;5054104;28;20079;-77
2022/02/08 06:31:02;;;;;;;44.83;22.35;;;0.00;50.70;;;;;;5052227;28;20140;-78
2022/02/08 06:33:28;;;;;;;34.40;16.20;;;0.00;50.60;;;;;;5035747;28;20029;-81
2022/02/08 06:35:57;;;;;;;25.40;9.52;;;0.00;50.60;;;;;;5051774;28;20056;-81
2022/02/08 06:38:23;;;;;;;19.73;9.07;;;0.00;50.60;;;;;;5053983;28;20120;-82
2022/02/08 06:40:54;;;;;;;19.88;8.82;;;0.00;50.70;;;;;;5035863;28;20044;-82
2022/02/08 06:43:33;;;;;;;16.55;8.02;;;0.00;50.70;;;;;;5052623;28;20379;-82
2022/02/08 06:46:02;;;;;;;18.80;8.68;;;0.00;50.70;;;;;;5016953;28;20044;-82
2022/02/08 06:48:28;;;;;;;26.48;10.60;;;0.10;50.80;;;;;;5045979;28;20048;-82
2022/02/08 06:50:57;;;;;;;;;;;0.10;50.80;;;;;;5046083;28;20057;-82
2022/02/08 06:53:26;;;;;;;20.33;6.60;;;0.10;50.20;;;;;;5047409;28;19917;-77
2022/02/08 06:56:02;;;;;;;17.45;8.65;;;0.20;50.50;;;;;;5015729;28;20058;-82
2022/02/08 06:58:36;;;;;;;19.00;8.50;;;0.10;51.20;;;;;;5040880;28;20083;-81
2022/02/08 07:01:31;;;;;;;18.50;7.95;;;0.10;50.70;;;;;;5025965;28;20045;-77
2022/02/08 07:04:00;;;;;;;27.40;11.77;;;0.20;51.20;;;;;;4994750;28;20064;-83
2022/02/08 07:06:50;;;;;;;22.33;8.60;;;0.20;51.10;;;;;;5010318;28;20057;-82
2022/02/08 07:09:16;;;;;;;15.02;7.72;;;0.30;51.50;;;;;;4978858;28;20152;-78
2022/02/08 07:11:47;;;;;;;18.02;7.20;;;0.40;51.20;;;;;;5010211;28;21775;-78
2022/02/08 07:14:18;;;;;;;23.90;10.48;;;0.50;51.10;;;;;;5009883;28;20077;-78
2022/02/08 07:16:46;;;;;;;28.63;10.10;;;0.50;51.20;;;;;;5010957;28;20041;-78
2022/02/08 07:19:32;;;;;;;20.13;7.47;;;0.60;51.10;;;;;;5011373;28;20252;-83
2022/02/08 07:22:01;;;;;;;;;;;0.70;51.10;;;;;;5010471;28;20046;-82
2022/02/08 07:24:45;;;;;;;104.80;49.67;;;0.70;50.00;;;;;;4994657;28;19921;-77
2022/02/08 07:27:13;;;;;;;71.85;33.67;;;0.80;50.90;;;;;;4994721;28;20503;-78
2022/02/08 07:29:50;;;;;;;31.45;18.05;;;0.80;51.00;;;;;;4994664;28;20104;-79
2022/02/08 07:32:17;;;;;;;;;;;0.90;51.40;;;;;;4979294;28;20042;-77
2022/02/08 07:34:55;;;;;;;26.60;13.20;;;0.90;50.90;;;;;;5017495;28;19940;-78
2022/02/08 07:37:33;;;;;;;32.35;14.45;;;0.90;51.40;;;;;;5038572;28;20068;-78
2022/02/08 07:40:15;;;;;;;21.50;10.55;;;1.00;51.50;;;;;;5038099;28;20116;-78
2022/02/08 07:42:41;;;;;;;17.60;7.72;;;1.00;52.00;;;;;;5031169;28;20064;-77
2022/02/08 07:45:08;;;;;;;21.20;8.00;;;1.10;52.30;;;;;;5047067;28;20383;-82
2022/02/08 07:47:35;;;;;;;22.73;8.80;;;1.10;51.60;;;;;;5044433;28;20079;-82
2022/02/08 07:50:14;;;;;;;21.15;8.40;;;1.20;52.00;;;;;;5021215;28;20482;-78
2022/02/08 07:52:43;;;;;;;25.42;11.60;;;1.20;51.30;;;;;;5027430;28;20079;-83
2022/02/08 07:55:10;;;;;;;22.80;10.52;;;1.30;51.70;;;;;;5031970;28;20494;-78
2022/02/08 07:57:49;;;;;;;22.52;10.60;;;1.50;51.60;;;;;;5022278;28;20608;-83
2022/02/08 08:00:17;;;;;;;20.98;9.68;;;1.60;51.20;;;;;;5051315;28;20036;-83
2022/02/08 08:03:08;;;;;;;27.40;10.95;;;1.80;50.70;;;;;;5048422;28;20033;-79
2022/02/08 08:05:59;;;;;;;28.48;12.82;;;1.90;50.80;;;;;;5036733;28;20116;-82
2022/02/08 08:08:27;;;;;;;25.27;12.02;;;2.00;50.60;;;;;;5044414;28;20116;-76
2022/02/08 08:10:53;;;;;;;21.75;10.75;;;2.10;50.50;;;;;;5042014;28;20072;-82
2022/02/08 08:13:27;;;;;;;27.05;13.75;;;2.30;50.30;;;;;;5026149;28;20029;-78
2022/02/08 08:16:01;;;;;;;26.73;12.75;;;2.50;50.10;;;;;;5046572;28;20041;-81
2022/02/08 08:21:12;;;;;;;29.85;12.15;;;2.80;49.60;;;;;;5050314;28;20155;-82
2022/02/08 08:23:40;;;;;;;33.10;15.30;;;2.90;49.40;;;;;;5050171;28;20037;-83
2022/02/08 08:26:09;;;;;;;20.38;9.05;;;3.10;49.30;;;;;;5042177;28;20044;-80
2022/02/08 08:28:37;;;;;;;24.27;7.82;;;3.20;48.90;;;;;;5034077;28;20116;-82
2022/02/08 08:31:05;;;;;;;12.80;6.38;;;3.40;48.80;;;;;;5050080;28;20033;-78
2022/02/08 08:33:32;;;;;;;27.67;11.43;;;3.60;48.60;;;;;;5033819;28;20033;-83
2022/02/08 08:35:58;;;;;;;24.40;11.10;;;3.80;48.40;;;;;;5050485;28;20037;-78
2022/02/08 08:38:29;;;;;;;;;;;4.00;48.20;;;;;;5034014;28;20083;-83
2022/02/08 08:53:52;;;;;;;6.70;2.13;;;11.20;35.30;;;;;;5051204;28;20081;-78
2022/02/08 08:56:18;;;;;;;6.78;2.50;;;12.80;31.70;;;;;;5046735;28;20060;-77
2022/02/08 08:58:44;;;;;;;5.70;2.25;;;13.90;29.90;;;;;;5046359;28;20029;-78
2022/02/08 09:01:13;;;;;;;5.57;2.35;;;14.80;29.30;;;;;;5054923;28;20037;-81
2022/02/08 09:03:41;;;;;;;5.47;2.08;;;15.70;28.50;;;;;;5020882;28;20052;-79
2022/02/08 09:06:08;;;;;;;4.45;1.52;;;16.80;27.60;;;;;;5036977;28;20041;-78
2022/02/08 09:08:42;;;;;;;4.97;1.83;;;17.60;26.20;;;;;;5053032;28;20082;-82
2022/02/08 09:11:19;;;;;;;5.43;1.70;;;18.40;25.40;;;;;;5054012;28;20037;-82
2022/02/08 09:13:57;;;;;;;4.78;1.85;;;19.10;23.90;;;;;;5054805;28;20057;-81
2022/02/08 09:16:31;;;;;;;4.72;1.77;;;19.60;23.50;;;;;;5053816;28;20114;-81
2022/02/08 09:22:27;;;;;;;;;;;20.30;22.20;;;;;;5053620;28;20140;-81
2022/02/08 09:28:20;;;;;;;6.63;2.53;;;18.80;24.50;;;;;;5054889;28;20065;-80
2022/02/08 09:31:14;;;;;;;6.15;2.50;;;17.60;25.10;;;;;;5053844;28;20040;-82
2022/02/08 09:33:49;;;;;;;8.10;2.40;;;17.20;25.00;;;;;;5038629;28;20049;-79
2022/02/08 09:36:24;;;;;;;6.28;2.13;;;16.90;24.30;;;;;;5047251;28;20375;-79
2022/02/08 09:39:16;;;;;;;5.53;1.88;;;16.40;24.80;;;;;;5048396;28;20044;-82
2022/02/08 09:41:47;;;;;;;6.70;2.85;;;16.50;24.50;;;;;;5052769;28;20032;-82
2022/02/08 09:44:18;;;;;;;7.45;2.40;;;16.70;24.90;;;;;;5053609;28;20083;-81
2022/02/08 09:46:46;;;;;;;5.18;2.03;;;18.20;23.30;;;;;;5052963;28;20033;-82
2022/02/08 09:49:14;;;;;;;8.38;3.42;;;18.70;22.10;;;;;;5053516;28;20037;-84
2022/02/08 09:51:49;;;;;;;8.07;3.60;;;17.70;23.10;;;;;;5052600;28;20056;-83
2022/02/08 09:54:35;;;;;;;6.20;2.95;;;17.00;24.00;;;;;;5052727;28;20039;-80
2022/02/08 09:57:07;;;;;;;6.78;2.30;;;15.90;24.60;;;;;;5054113;28;20438;-83
2022/02/08 09:59:43;;;;;;;8.30;3.30;;;16.30;24.70;;;;;;5037781;28;20040;-83
2022/02/08 10:02:09;;;;;;;13.15;5.95;;;16.20;24.30;;;;;;5036098;28;20061;-81
2022/02/08 10:04:43;;;;;;;8.00;4.10;;;16.40;24.00;;;;;;5036762;28;20025;-83
2022/02/08 10:07:37;;;;;;;7.45;2.90;;;16.40;23.40;;;;;;5035517;28;20444;-80
2022/02/08 10:10:53;;;;;;;6.63;3.20;;;15.80;23.90;;;;;;5016722;28;20186;-83
2022/02/08 10:14:00;;;;;;;8.05;3.58;;;15.70;24.40;;;;;;5028358;28;20082;-83
2022/02/08 10:20:52;;;;;;;6.13;2.72;;;15.90;24.00;;;;;;5049613;28;20135;-83
2022/02/08 10:23:03;;;;;;;5.95;2.40;;;15.50;24.70;;;;;;5049036;28;20087;-82
2022/02/08 10:28:31;;;;;;;8.05;2.40;;;14.60;25.10;;;;;;5051028;28;20040;-84
2022/02/08 10:39:30;;;;;;;8.35;3.63;;;16.60;23.30;;;;;;5051269;28;20116;-85
2022/02/08 10:42:18;;;;;;;8.18;3.10;;;16.40;22.60;;;;;;5035803;28;20094;-80
2022/02/08 10:45:34;;;;;;;7.68;3.03;;;16.10;23.00;;;;;;5045323;28;20033;-80
2022/02/08 10:48:23;;;;;;;6.72;3.25;;;15.90;23.50;;;;;;5035835;28;20044;-80
2022/02/08 10:50:56;;;;;;;13.98;6.80;;;15.90;23.40;;;;;;5036405;28;20032;-85
2022/02/08 10:53:37;;;;;;;6.97;3.33;;;15.80;23.20;;;;;;5035294;28;20075;-84
2022/02/08 10:56:13;;;;;;;7.40;3.67;;;15.70;22.50;;;;;;5051296;28;20059;-83
2022/02/08 10:58:49;;;;;;;6.70;2.67;;;16.40;22.30;;;;;;5052403;28;20051;-80
2022/02/08 11:04:16;;;;;;;14.27;5.63;;;16.20;22.40;;;;;;5052538;28;20095;-83
2022/02/08 11:07:09;;;;;;;21.85;10.13;;;15.70;22.70;;;;;;5067272;28;20387;-83
2022/02/08 11:09:52;;;;;;;16.65;8.98;;;15.80;22.70;;;;;;5051510;28;20029;-80
2022/02/08 11:18:42;;;;;;;12.45;6.60;;;17.10;20.40;;;;;;5053111;28;20121;-80
2022/02/08 11:24:06;;;;;;;5.78;2.00;;;18.30;20.40;;;;;;5050884;28;20067;-79
2022/02/08 11:26:43;;;;;;;5.88;2.08;;;18.50;20.10;;;;;;5046198;28;20033;-83
2022/02/08 11:29:37;;;;;;;4.47;2.05;;;19.00;19.20;;;;;;5048348;28;20064;-84
2022/02/08 11:32:44;;;;;;;10.07;2.92;;;19.70;19.10;;;;;;5045035;28;20049;-80
2022/02/08 11:44:43;;;;;;;6.00;2.00;;;19.90;18.20;;;;;;5051878;28;20082;-80
2022/02/08 11:47:35;;;;;;;4.65;1.73;;;19.10;19.00;;;;;;5052301;28;20063;-83
2022/02/08 11:50:20;;;;;;;9.55;1.90;;;18.30;19.20;;;;;;5051945;28;20060;-83
2022/02/08 11:53:09;;;;;;;5.68;1.83;;;18.30;19.10;;;;;;5051203;28;20041;-81
2022/02/08 11:59:45;;;;;;;7.75;2.60;;;18.90;18.50;;;;;;5043134;28;20049;-80
2022/02/08 12:02:50;;;;;;;8.02;3.35;;;19.70;19.20;;;;;;5051714;28;20037;-83
2022/02/08 12:07:53;;;;;;;7.28;1.73;;;19.80;18.30;;;;;;5051078;28;20124;-79
2022/02/08 12:10:38;;;;;;;8.85;2.50;;;19.80;18.10;;;;;;5050413;28;20090;-80
2022/02/08 12:34:20;;;;;;;11.63;4.30;;;20.00;18.10;;;;;;5056130;28;20044;-80
2022/02/08 12:48:25;;;;;;;16.83;7.30;;;19.70;18.20;;;;;;5054403;28;20076;-79
2022/02/08 12:49:18;;;;;;;6.30;3.28;;;19.10;18.10;;;;;;5054383;28;20117;-82
2022/02/08 12:54:40;;;;;;;18.07;8.50;;;18.30;19.20;;;;;;5039920;28;20095;-84
2022/02/08 12:57:20;;;;;;;11.90;6.25;;;18.00;19.50;;;;;;5053631;28;20068;-79
2022/02/08 13:05:50;;;;;;;14.27;5.82;;;17.20;19.90;;;;;;5054796;28;20083;-83
2022/02/08 14:04:47;;;;;;;4.85;1.48;;;36.30;7.20;;;;;;5049909;28;20036;-78
2022/02/08 14:06:57;;;;;;;4.97;1.75;;;36.60;6.80;;;;;;5051404;28;20549;-83
2022/02/08 14:09:42;;;;;;;5.68;2.22;;;36.70;6.50;;;;;;5051291;28;20401;-79
2022/02/08 14:58:44;;;;;;;5.53;1.47;;;32.60;6.30;;;;;;5051291;28;20110;-82
2022/02/08 15:08:10;;;;;;;6.43;3.30;;;31.80;6.60;;;;;;5052077;28;20055;-82
2022/02/08 15:10:47;;;;;;;6.90;2.15;;;31.10;7.00;;;;;;5032414;28;20049;-81
2022/02/08 15:13:26;;;;;;;8.93;4.00;;;28.40;8.10;;;;;;5039619;28;20037;-80
2022/02/08 15:16:13;;;;;;;9.63;3.00;;;26.10;9.30;;;;;;5034960;28;20128;-80
2022/02/08 15:19:15;;;;;;;26.70;18.77;;;24.50;10.90;;;;;;5052270;28;20119;-82
2022/02/08 15:21:41;;;;;;;26.92;18.15;;;22.90;11.40;;;;;;5047518;28;20049;-82
2022/02/08 15:24:09;;;;;;;27.85;16.95;;;22.30;12.20;;;;;;5052026;28;20025;-81
2022/02/08 15:26:47;;;;;;;35.63;22.73;;;21.60;12.60;;;;;;5051023;28;20451;-80
2022/02/08 15:29:31;;;;;;;34.10;19.25;;;21.00;13.20;;;;;;5036661;28;20045;-81
2022/02/08 15:31:57;;;;;;;40.80;24.67;;;20.60;14.00;;;;;;5034763;28;20536;-80
2022/02/08 15:34:27;;;;;;;14.68;8.02;;;20.20;14.20;;;;;;5051619;28;20071;-82
2022/02/08 15:36:55;;;;;;;25.85;16.27;;;19.60;14.00;;;;;;5067678;28;20037;-82
2022/02/08 15:39:41;;;;;;;25.15;14.07;;;19.20;14.90;;;;;;5034829;28;20029;-82
2022/02/08 15:42:30;;;;;;;26.70;13.50;;;18.70;14.90;;;;;;5050132;28;20037;-82
2022/02/08 15:45:24;;;;;;;26.70;13.27;;;18.30;14.90;;;;;;5053474;28;20048;-81
2022/02/08 15:47:51;;;;;;;30.38;16.98;;;18.00;15.40;;;;;;5051400;28;20095;-81
2022/02/08 15:50:36;;;;;;;33.35;17.85;;;17.70;15.90;;;;;;5034503;28;20045;-81
2022/02/08 15:56:29;;;;;;;;;;;17.10;16.30;;;;;;5050921;28;20057;-80
2022/02/08 16:07:10;;;;;;;15.55;9.27;;;15.70;17.10;;;;;;5055522;28;20520;-81
2022/02/08 16:17:41;;;;;;;;;;;14.70;18.20;;;;;;5053647;28;20037;-82
2022/02/08 16:31:22;;;;;;;16.02;8.82;;;13.70;20.70;;;;;;5070576;28;20402;-81
2022/02/08 16:51:10;;;;;;;;;;;12.20;23.30;;;;;;5055095;28;20425;-83
2022/02/08 16:53:19;;;;;;;60.63;32.10;;;11.90;22.90;;;;;;5054795;28;20348;-83
2022/02/08 16:56:12;;;;;;;45.63;21.75;;;11.60;24.00;;;;;;5058586;28;20052;-83
2022/02/08 16:58:51;;;;;;;34.60;17.98;;;11.30;24.70;;;;;;5041160;28;20049;-80
2022/02/08 17:01:28;;;;;;;39.35;17.70;;;11.00;25.60;;;;;;5038447;28;20091;-80
2022/02/08 17:03:55;;;;;;;49.47;25.42;;;10.80;25.20;;;;;;5055385;28;20105;-80
2022/02/08 17:07:07;;;;;;;196.20;80.97;;;10.70;25.50;;;;;;5037009;28;20041;-80
2022/02/08 17:09:58;;;;;;;296.13;121.38;;;10.50;25.40;;;;;;5051379;28;20043;-83
2022/02/08 17:12:33;;;;;;;227.52;96.95;;;10.30;25.40;;;;;;5037202;28;20045;-83
2022/02/08 17:47:54;;;;;;;61.55;27.27;;;8.60;29.00;;;;;;5069012;28;20163;-80
2022/02/08 17:50:20;;;;;;;73.25;28.77;;;8.50;29.30;;;;;;5053166;28;20117;-80
2022/02/08 17:52:54;;;;;;;;;;;8.40;29.60;;;;;;5037417;28;20033;-83
2022/02/08 17:55:24;;;;;;;48.67;21.42;;;8.30;28.80;;;;;;5036955;28;19917;-83
2022/02/08 17:58:06;;;;;;;47.72;21.17;;;8.10;29.70;;;;;;5017702;28;20508;-83
2022/02/08 18:00:35;;;;;;;52.53;21.67;;;8.10;30.00;;;;;;5054697;28;20068;-83
2022/02/08 18:03:20;;;;;;;68.82;30.85;;;7.90;30.40;;;;;;5036613;28;20037;-83
2022/02/08 18:05:46;;;;;;;56.08;26.77;;;7.90;31.10;;;;;;5053110;28;20037;-81
2022/02/08 18:08:28;;;;;;;56.50;25.85;;;7.70;31.00;;;;;;5052701;28;20115;-83
2022/02/08 18:10:57;;;;;;;43.33;19.88;;;7.60;31.50;;;;;;5053239;28;20049;-80
2022/02/08 18:13:33;;;;;;;30.17;16.42;;;7.50;31.30;;;;;;5036375;28;20075;-82
2022/02/08 18:16:03;;;;;;;25.83;13.70;;;7.40;31.40;;;;;;5036228;28;20087;-83
2022/02/08 18:18:37;;;;;;;27.67;13.10;;;7.30;31.50;;;;;;5068563;28;20119;-78
2022/02/08 18:21:13;;;;;;;27.45;14.80;;;7.20;31.50;;;;;;5049839;28;20037;-83
2022/02/08 19:23:54;;;;;;;30.80;12.10;;;5.60;36.30;;;;;;5051428;28;20037;-83
2022/02/08 19:26:23;;;;;;;23.45;11.25;;;5.40;36.40;;;;;;5051216;28;20037;-79
2022/02/08 19:28:54;;;;;;;33.53;14.13;;;5.30;36.30;;;;;;5034191;28;20722;-83
2022/02/08 19:31:33;;;;;;;27.70;13.20;;;5.30;36.00;;;;;;5051584;28;20067;-82
2022/02/08 19:34:02;;;;;;;51.58;20.23;;;5.30;36.60;;;;;;5051603;28;20045;-81
2022/02/08 19:36:29;;;;;;;51.13;18.80;;;5.20;36.60;;;;;;5051161;28;20398;-78
2022/02/08 19:39:02;;;;;;;26.20;11.07;;;5.10;36.60;;;;;;5052994;28;20040;-83
2022/02/08 19:41:29;;;;;;;23.90;10.38;;;5.10;37.00;;;;;;5051354;28;20049;-80
2022/02/08 19:43:59;;;;;;;31.52;14.15;;;4.90;36.90;;;;;;5052026;28;20064;-78
2022/02/08 19:46:27;;;;;;;43.72;19.15;;;4.90;37.10;;;;;;5050938;28;20075;-79
2022/02/08 19:48:56;;;;;;;39.58;16.00;;;4.80;37.10;;;;;;5035300;28;20063;-79
2022/02/08 19:51:28;;;;;;;48.50;19.33;;;4.80;37.50;;;;;;5051551;28;20037;-83
2022/02/08 19:53:57;;;;;;;29.33;11.38;;;4.70;37.50;;;;;;5051852;28;20060;-80
2022/02/08 19:56:35;;;;;;;24.70;10.65;;;4.70;37.90;;;;;;5052152;28;20044;-83
2022/02/08 19:59:02;;;;;;;36.47;14.25;;;4.60;37.40;;;;;;5035953;28;20037;-79
2022/02/08 20:01:35;;;;;;;42.55;17.27;;;4.60;37.90;;;;;;5034627;28;20033;-79
2022/02/08 20:04:15;;;;;;;45.20;18.65;;;4.60;38.10;;;;;;5053020;28;20115;-83
2022/02/08 20:06:52;;;;;;;34.58;13.90;;;4.50;38.10;;;;;;5021331;28;20483;-79
2022/02/08 20:09:20;;;;;;;37.22;12.77;;;4.50;38.40;;;;;;5035294;28;20086;-79
2022/02/08 20:11:47;;;;;;;41.47;16.85;;;4.50;38.50;;;;;;5052503;28;20039;-83
2022/02/08 20:14:13;;;;;;;55.90;23.52;;;4.40;38.60;;;;;;5050663;28;20087;-83
2022/02/08 20:16:42;;;;;;;;;;;4.30;39.00;;;;;;5050847;28;20367;-83
2022/02/08 20:19:10;;;;;;;73.88;32.08;;;4.20;38.10;;;;;;5051786;28;19977;-78
2022/02/08 20:21:37;;;;;;;67.68;34.45;;;4.10;38.70;;;;;;5051138;28;20044;-83
2022/02/08 20:24:08;;;;;;;68.80;33.65;;;4.10;38.90;;;;;;5035026;28;20067;-79
2022/02/08 20:29:26;;;;;;;71.30;35.17;;;4.10;39.20;;;;;;5050759;28;20044;-82
2022/02/08 20:31:55;;;;;;;56.00;28.80;;;4.00;39.10;;;;;;5050976;28;20044;-79
2022/02/08 20:34:25;;;;;;;62.72;28.58;;;4.00;39.50;;;;;;5034509;28;20082;-80
2022/02/08 20:36:57;;;;;;;63.58;30.42;;;4.00;39.60;;;;;;5034737;28;20036;-83
2022/02/08 20:39:25;;;;;;;55.60;28.27;;;4.00;39.70;;;;;;5035561;28;20410;-79
2022/02/08 20:41:56;;;;;;;49.95;25.35;;;3.90;39.80;;;;;;5034123;28;20072;-83
2022/02/08 20:44:24;;;;;;;59.70;28.77;;;4.00;40.00;;;;;;5034715;28;20029;-79
2022/02/08 20:46:57;;;;;;;62.38;28.75;;;3.90;40.10;;;;;;5050720;28;20029;-78
2022/02/08 20:49:26;;;;;;;70.07;32.03;;;3.90;40.20;;;;;;5052385;28;20103;-79
2022/02/08 20:51:53;;;;;;;87.15;37.55;;;3.80;40.50;;;;;;5053566;28;20037;-79
2022/02/08 20:54:25;;;;;;;88.30;40.55;;;3.70;40.40;;;;;;5055132;28;20116;-79
2022/02/08 20:57:01;;;;;;;86.90;37.63;;;3.70;40.40;;;;;;5038414;28;20045;-83
2022/02/08 20:59:29;;;;;;;93.13;40.28;;;3.70;40.40;;;;;;5053969;28;20029;-83
2022/02/08 21:02:01;;;;;;;91.15;39.15;;;3.70;40.20;;;;;;5035595;28;20053;-83
2022/02/08 21:04:52;;;;;;;91.15;38.25;;;3.70;40.50;;;;;;5042857;28;20047;-82
2022/02/08 21:07:18;;;;;;;85.88;39.63;;;3.70;40.60;;;;;;5054478;28;20041;-83
2022/02/08 21:09:53;;;;;;;80.28;38.25;;;3.60;40.50;;;;;;5037688;28;20043;-83
2022/02/08 21:12:29;;;;;;;93.75;40.95;;;3.60;41.00;;;;;;5054182;28;20090;-79
2022/02/08 21:14:56;;;;;;;164.15;59.10;;;3.50;40.90;;;;;;5036693;28;20036;-79